createdAt,value
2018-03-23T00:00:37.825Z,1005.36
2018-03-23T00:01:37.799Z,1005.35
2018-03-23T00:02:37.778Z,1005.33
2018-03-23T00:03:37.757Z,1005.37
2018-03-23T00:04:37.734Z,1005.36
2018-03-23T00:05:37.713Z,1005.32
2018-03-23T00:06:37.696Z,1005.33
2018-03-23T00:07:37.679Z,1005.37
2018-03-23T00:08:37.652Z,1005.34
2018-03-23T00:09:37.640Z,1005.37
2018-03-23T00:10:37.615Z,1005.33
2018-03-23T00:11:37.601Z,1005.34
2018-03-23T00:12:37.585Z,1005.33
2018-03-23T00:13:37.563Z,1005.30
2018-03-23T00:14:37.526Z,1005.28
2018-03-23T00:15:37.514Z,1005.28
2018-03-23T00:16:37.490Z,1005.24
2018-03-23T00:17:37.463Z,1005.28
2018-03-23T00:18:37.447Z,1005.27
2018-03-23T00:19:37.425Z,1005.26
2018-03-23T00:20:37.402Z,1005.25
2018-03-23T00:21:37.382Z,1005.24
2018-03-23T00:22:37.363Z,1005.24
2018-03-23T00:23:37.338Z,1005.24
2018-03-23T00:24:37.319Z,1005.23
2018-03-23T00:25:37.296Z,1005.20
2018-03-23T00:26:37.275Z,1005.22
2018-03-23T00:27:37.258Z,1005.22
2018-03-23T00:28:37.240Z,1005.23
2018-03-23T00:29:37.216Z,1005.23
2018-03-23T00:30:37.196Z,1005.19
2018-03-23T00:31:37.196Z,1005.21
2018-03-23T00:32:37.148Z,1005.23
2018-03-23T00:33:37.128Z,1005.22
2018-03-23T00:34:37.114Z,1005.21
2018-03-23T00:35:37.091Z,1005.17
2018-03-23T00:36:37.065Z,1005.22
2018-03-23T00:37:37.045Z,1005.19
2018-03-23T00:38:37.030Z,1005.17
2018-03-23T00:39:37.004Z,1005.15
2018-03-23T00:40:36.982Z,1005.15
2018-03-23T00:41:36.966Z,1005.12
2018-03-23T00:42:36.957Z,1005.15
2018-03-23T00:43:36.918Z,1005.07
2018-03-23T00:44:36.907Z,1005.08
2018-03-23T00:45:36.878Z,1005.11
2018-03-23T00:46:36.855Z,1005.12
2018-03-23T00:47:36.832Z,1005.10
2018-03-23T00:48:36.815Z,1005.06
2018-03-23T00:49:36.792Z,1005.09
2018-03-23T00:50:36.776Z,1005.09
2018-03-23T00:51:36.752Z,1005.13
2018-03-23T00:52:36.728Z,1005.11
2018-03-23T00:53:36.714Z,1005.08
2018-03-23T00:54:36.690Z,1005.09
2018-03-23T00:55:36.668Z,1005.09
2018-03-23T00:56:36.645Z,1005.07
2018-03-23T00:57:36.626Z,1005.05
2018-03-23T00:58:36.603Z,1005.05
2018-03-23T00:59:36.586Z,1005.03
2018-03-23T01:00:36.562Z,1005.04
2018-03-23T01:01:36.545Z,1005.04
2018-03-23T01:02:36.531Z,1004.99
2018-03-23T01:03:36.516Z,1004.99
2018-03-23T01:04:36.487Z,1004.97
2018-03-23T01:05:36.459Z,1004.96
2018-03-23T01:06:36.444Z,1004.94
2018-03-23T01:07:36.417Z,1004.92
2018-03-23T01:08:36.397Z,1004.94
2018-03-23T01:09:36.378Z,1004.92
2018-03-23T01:10:36.355Z,1004.91
2018-03-23T01:11:36.338Z,1004.90
2018-03-23T01:12:36.315Z,1004.91
2018-03-23T01:13:36.294Z,1004.92
2018-03-23T01:14:36.302Z,1004.90
2018-03-23T01:15:36.249Z,1004.86
2018-03-23T01:16:36.229Z,1004.90
2018-03-23T01:17:36.207Z,1004.84
2018-03-23T01:18:36.187Z,1004.85
2018-03-23T01:19:36.165Z,1004.85
2018-03-23T01:20:36.148Z,1004.84
2018-03-23T01:21:36.134Z,1004.83
2018-03-23T01:22:36.102Z,1004.82
2018-03-23T01:23:36.083Z,1004.83
2018-03-23T01:24:36.060Z,1004.83
2018-03-23T01:25:36.039Z,1004.85
2018-03-23T01:26:36.020Z,1004.83
2018-03-23T01:27:36.001Z,1004.83
2018-03-23T01:28:35.987Z,1004.80
2018-03-23T01:29:35.958Z,1004.78
2018-03-23T01:30:35.937Z,1004.81
2018-03-23T01:31:35.939Z,1004.81
2018-03-23T01:32:35.897Z,1004.77
2018-03-23T01:33:35.877Z,1004.77
2018-03-23T01:34:35.857Z,1004.77
2018-03-23T01:35:35.834Z,1004.77
2018-03-23T01:36:35.814Z,1004.77
2018-03-23T01:37:35.791Z,1004.73
2018-03-23T01:38:35.770Z,1004.76
2018-03-23T01:39:35.754Z,1004.73
2018-03-23T01:40:35.735Z,1004.75
2018-03-23T01:41:35.707Z,1004.69
2018-03-23T01:42:35.697Z,1004.74
2018-03-23T01:43:35.667Z,1004.67
2018-03-23T01:44:35.645Z,1004.66
2018-03-23T01:45:35.620Z,1004.64
2018-03-23T01:46:35.612Z,1004.64
2018-03-23T01:47:35.581Z,1004.64
2018-03-23T01:48:35.565Z,1004.62
2018-03-23T01:49:35.541Z,1004.61
2018-03-23T01:50:35.517Z,1004.59
2018-03-23T01:51:35.496Z,1004.59
2018-03-23T01:52:35.475Z,1004.62
2018-03-23T01:53:35.453Z,1004.65
2018-03-23T01:54:35.436Z,1004.63
2018-03-23T01:55:35.415Z,1004.63
2018-03-23T01:56:35.391Z,1004.61
2018-03-23T01:57:35.375Z,1004.61
2018-03-23T01:58:35.350Z,1004.59
2018-03-23T01:59:35.330Z,1004.57
2018-03-23T02:00:35.303Z,1004.53
2018-03-23T02:01:35.285Z,1004.54
2018-03-23T02:02:35.267Z,1004.55
2018-03-23T02:03:35.239Z,1004.55
2018-03-23T02:04:35.232Z,1004.53
2018-03-23T02:05:35.209Z,1004.53
2018-03-23T02:06:35.178Z,1004.52
2018-03-23T02:07:35.155Z,1004.49
2018-03-23T02:08:35.140Z,1004.49
2018-03-23T02:09:35.120Z,1004.48
2018-03-23T02:10:35.096Z,1004.50
2018-03-23T02:11:35.072Z,1004.45
2018-03-23T02:12:35.049Z,1004.45
2018-03-23T02:13:35.033Z,1004.43
2018-03-23T02:14:35.012Z,1004.42
2018-03-23T02:15:34.987Z,1004.42
2018-03-23T02:16:34.966Z,1004.40
2018-03-23T02:17:34.949Z,1004.41
2018-03-23T02:18:34.927Z,1004.39
2018-03-23T02:19:34.908Z,1004.38
2018-03-23T02:20:34.891Z,1004.38
2018-03-23T02:21:34.868Z,1004.36
2018-03-23T02:22:34.844Z,1004.33
2018-03-23T02:23:34.817Z,1004.32
2018-03-23T02:24:34.803Z,1004.31
2018-03-23T02:25:34.777Z,1004.30
2018-03-23T02:26:34.755Z,1004.31
2018-03-23T02:27:34.732Z,1004.29
2018-03-23T02:28:34.716Z,1004.30
2018-03-23T02:29:34.690Z,1004.26
2018-03-23T02:30:34.670Z,1004.26
2018-03-23T02:31:34.655Z,1004.26
2018-03-23T02:32:34.628Z,1004.26
2018-03-23T02:33:34.606Z,1004.25
2018-03-23T02:34:34.584Z,1004.22
2018-03-23T02:35:34.564Z,1004.24
2018-03-23T02:36:34.539Z,1004.20
2018-03-23T02:37:34.517Z,1004.14
2018-03-23T02:38:34.494Z,1004.14
2018-03-23T02:39:34.480Z,1004.16
2018-03-23T02:40:34.451Z,1004.16
2018-03-23T02:41:34.435Z,1004.10
2018-03-23T02:42:34.422Z,1004.10
2018-03-23T02:43:34.392Z,1004.11
2018-03-23T02:44:34.370Z,1004.07
2018-03-23T02:45:34.347Z,1004.08
2018-03-23T02:46:34.324Z,1004.06
2018-03-23T02:47:34.304Z,1004.06
2018-03-23T02:48:34.281Z,1004.04
2018-03-23T02:49:34.264Z,1004.04
2018-03-23T02:50:34.241Z,1004.00
2018-03-23T02:51:34.220Z,1003.98
2018-03-23T02:52:34.195Z,1003.99
2018-03-23T02:53:34.174Z,1003.99
2018-03-23T02:54:34.154Z,1004.01
2018-03-23T02:55:34.130Z,1004.00
2018-03-23T02:56:34.115Z,1004.00
2018-03-23T02:57:34.091Z,1004.00
2018-03-23T02:58:34.067Z,1003.96
2018-03-23T02:59:34.046Z,1003.97
2018-03-23T03:00:34.025Z,1003.96
2018-03-23T03:01:34.006Z,1003.96
2018-03-23T03:02:33.984Z,1003.95
2018-03-23T03:03:33.962Z,1003.95
2018-03-23T03:04:33.945Z,1003.96
2018-03-23T03:05:33.924Z,1003.93
2018-03-23T03:06:33.912Z,1003.96
2018-03-23T03:07:33.876Z,1003.91
2018-03-23T03:08:33.854Z,1003.88
2018-03-23T03:09:33.835Z,1003.91
2018-03-23T03:10:33.813Z,1003.89
2018-03-23T03:11:33.791Z,1003.89
2018-03-23T03:12:33.775Z,1003.84
2018-03-23T03:13:33.756Z,1003.87
2018-03-23T03:14:33.732Z,1003.86
2018-03-23T03:15:33.709Z,1003.89
2018-03-23T03:16:33.685Z,1003.87
2018-03-23T03:17:33.665Z,1003.87
2018-03-23T03:18:33.646Z,1003.86
2018-03-23T03:19:33.626Z,1003.85
2018-03-23T03:20:33.604Z,1003.85
2018-03-23T03:21:33.581Z,1003.90
2018-03-23T03:22:33.559Z,1003.86
2018-03-23T03:23:33.538Z,1003.83
2018-03-23T03:24:33.519Z,1003.87
2018-03-23T03:25:33.495Z,1003.84
2018-03-23T03:26:33.474Z,1003.78
2018-03-23T03:27:33.458Z,1003.79
2018-03-23T03:28:33.430Z,1003.78
2018-03-23T03:29:33.409Z,1003.77
2018-03-23T03:30:33.389Z,1003.77
2018-03-23T03:31:33.370Z,1003.78
2018-03-23T03:32:33.345Z,1003.73
2018-03-23T03:33:33.325Z,1003.73
2018-03-23T03:34:33.306Z,1003.73
2018-03-23T03:35:33.282Z,1003.70
2018-03-23T03:36:33.264Z,1003.70
2018-03-23T03:37:33.240Z,1003.72
2018-03-23T03:38:33.220Z,1003.68
2018-03-23T03:39:33.204Z,1003.68
2018-03-23T03:40:33.175Z,1003.62
2018-03-23T03:41:33.155Z,1003.65
2018-03-23T03:42:33.145Z,1003.63
2018-03-23T03:43:33.115Z,1003.61
2018-03-23T03:44:33.092Z,1003.62
2018-03-23T03:45:33.074Z,1003.58
2018-03-23T03:46:33.054Z,1003.55
2018-03-23T03:47:33.029Z,1003.59
2018-03-23T03:48:33.012Z,1003.58
2018-03-23T03:49:32.985Z,1003.56
2018-03-23T03:50:32.964Z,1003.56
2018-03-23T03:51:32.945Z,1003.56
2018-03-23T03:52:32.925Z,1003.56
2018-03-23T03:53:32.902Z,1003.52
2018-03-23T03:54:32.893Z,1003.54
2018-03-23T03:55:32.862Z,1003.55
2018-03-23T03:56:32.838Z,1003.53
2018-03-23T03:57:32.814Z,1003.51
2018-03-23T03:58:32.795Z,1003.49
2018-03-23T03:59:32.786Z,1003.51
2018-03-23T04:00:32.755Z,1003.50
2018-03-23T04:01:32.736Z,1003.51
2018-03-23T04:02:32.712Z,1003.51
2018-03-23T04:03:32.696Z,1003.50
2018-03-23T04:04:32.668Z,1003.50
2018-03-23T04:05:32.648Z,1003.51
2018-03-23T04:06:32.632Z,1003.49
2018-03-23T04:07:32.605Z,1003.44
2018-03-23T04:08:32.590Z,1003.47
2018-03-23T04:09:32.565Z,1003.46
2018-03-23T04:10:32.546Z,1003.49
2018-03-23T04:11:32.519Z,1003.48
2018-03-23T04:12:32.504Z,1003.45
2018-03-23T04:13:32.479Z,1003.45
2018-03-23T04:14:32.458Z,1003.44
2018-03-23T04:15:32.435Z,1003.45
2018-03-23T04:16:32.415Z,1003.40
2018-03-23T04:17:32.393Z,1003.44
2018-03-23T04:18:32.380Z,1003.41
2018-03-23T04:19:32.358Z,1003.42
2018-03-23T04:20:32.332Z,1003.36
2018-03-23T04:21:32.314Z,1003.39
2018-03-23T04:22:32.292Z,1003.38
2018-03-23T04:23:32.268Z,1003.40
2018-03-23T04:24:32.247Z,1003.34
2018-03-23T04:25:32.228Z,1003.34
2018-03-23T04:26:32.208Z,1003.38
2018-03-23T04:27:32.186Z,1003.39
2018-03-23T04:28:32.163Z,1003.37
2018-03-23T04:29:32.142Z,1003.38
2018-03-23T04:30:32.125Z,1003.36
2018-03-23T04:31:32.102Z,1003.34
2018-03-23T04:32:32.078Z,1003.33
2018-03-23T04:33:32.058Z,1003.35
2018-03-23T04:34:32.039Z,1003.33
2018-03-23T04:35:32.015Z,1003.33
2018-03-23T04:36:31.995Z,1003.30
2018-03-23T04:37:31.976Z,1003.29
2018-03-23T04:38:31.950Z,1003.34
2018-03-23T04:39:31.936Z,1003.29
2018-03-23T04:40:31.910Z,1003.27
2018-03-23T04:41:31.891Z,1003.30
2018-03-23T04:42:31.870Z,1003.25
2018-03-23T04:43:31.846Z,1003.28
2018-03-23T04:44:31.824Z,1003.26
2018-03-23T04:45:31.808Z,1003.24
2018-03-23T04:46:31.782Z,1003.23
2018-03-23T04:47:31.771Z,1003.20
2018-03-23T04:48:31.747Z,1003.18
2018-03-23T04:49:31.726Z,1003.13
2018-03-23T04:50:31.699Z,1003.12
2018-03-23T04:51:31.675Z,1003.14
2018-03-23T04:52:31.655Z,1003.10
2018-03-23T04:53:31.635Z,1003.09
2018-03-23T04:54:31.615Z,1003.08
2018-03-23T04:55:31.592Z,1003.11
2018-03-23T04:56:31.570Z,1003.06
2018-03-23T04:57:31.555Z,1003.07
2018-03-23T04:58:31.533Z,1003.05
2018-03-23T04:59:31.507Z,1003.06
2018-03-23T05:00:31.492Z,1003.03
2018-03-23T05:01:31.469Z,1003.04
2018-03-23T05:02:31.445Z,1003.02
2018-03-23T05:03:31.426Z,1002.98
2018-03-23T05:04:31.405Z,1003.00
2018-03-23T05:05:31.386Z,1003.03
2018-03-23T05:06:31.363Z,1002.98
2018-03-23T05:07:31.340Z,1002.95
2018-03-23T05:08:31.322Z,1002.93
2018-03-23T05:09:31.298Z,1002.96
2018-03-23T05:10:31.326Z,1002.95
2018-03-23T05:11:31.255Z,1002.93
2018-03-23T05:12:31.234Z,1002.92
2018-03-23T05:13:31.217Z,1002.90
2018-03-23T05:14:31.191Z,1002.88
2018-03-23T05:15:31.175Z,1002.89
2018-03-23T05:16:31.156Z,1002.86
2018-03-23T05:17:31.137Z,1002.86
2018-03-23T05:18:31.113Z,1002.85
2018-03-23T05:19:31.085Z,1002.84
2018-03-23T05:20:31.072Z,1002.85
2018-03-23T05:21:31.046Z,1002.84
2018-03-23T05:22:31.029Z,1002.84
2018-03-23T05:23:31.007Z,1002.83
2018-03-23T05:24:30.987Z,1002.80
2018-03-23T05:25:30.963Z,1002.80
2018-03-23T05:26:30.946Z,1002.79
2018-03-23T05:27:30.922Z,1002.79
2018-03-23T05:28:30.899Z,1002.79
2018-03-23T05:29:30.882Z,1002.80
2018-03-23T05:30:30.856Z,1002.80
2018-03-23T05:31:30.835Z,1002.79
2018-03-23T05:32:30.816Z,1002.78
2018-03-23T05:33:30.797Z,1002.76
2018-03-23T05:34:30.774Z,1002.70
2018-03-23T05:35:30.750Z,1002.75
2018-03-23T05:36:30.727Z,1002.76
2018-03-23T05:37:30.708Z,1002.73
2018-03-23T05:38:30.692Z,1002.71
2018-03-23T05:39:30.668Z,1002.73
2018-03-23T05:40:30.644Z,1002.74
2018-03-23T05:41:30.622Z,1002.74
2018-03-23T05:42:30.607Z,1002.77
2018-03-23T05:43:30.580Z,1002.77
2018-03-23T05:44:30.566Z,1002.75
2018-03-23T05:45:30.546Z,1002.74
2018-03-23T05:46:30.517Z,1002.70
2018-03-23T05:47:30.500Z,1002.71
2018-03-23T05:48:30.474Z,1002.73
2018-03-23T05:49:30.454Z,1002.70
2018-03-23T05:50:30.437Z,1002.69
2018-03-23T05:51:30.413Z,1002.72
2018-03-23T05:52:30.390Z,1002.65
2018-03-23T05:53:30.378Z,1002.68
2018-03-23T05:54:30.351Z,1002.71
2018-03-23T05:55:30.328Z,1002.65
2018-03-23T05:56:30.312Z,1002.65
2018-03-23T05:57:30.284Z,1002.60
2018-03-23T05:58:30.269Z,1002.65
2018-03-23T05:59:30.245Z,1002.63
2018-03-23T06:00:30.226Z,1002.58
2018-03-23T06:01:30.205Z,1002.62
2018-03-23T06:02:30.184Z,1002.59
2018-03-23T06:03:30.160Z,1002.62
2018-03-23T06:04:30.146Z,1002.60
2018-03-23T06:05:30.122Z,1002.57
2018-03-23T06:06:30.141Z,1002.57
2018-03-23T06:07:30.083Z,1002.61
2018-03-23T06:08:30.055Z,1002.56
2018-03-23T06:09:30.036Z,1002.56
2018-03-23T06:10:30.017Z,1002.59
2018-03-23T06:11:29.995Z,1002.59
2018-03-23T06:12:29.974Z,1002.60
2018-03-23T06:13:29.955Z,1002.58
2018-03-23T06:14:29.934Z,1002.56
2018-03-23T06:15:29.911Z,1002.57
2018-03-23T06:16:29.885Z,1002.53
2018-03-23T06:17:29.865Z,1002.56
2018-03-23T06:18:29.844Z,1002.57
2018-03-23T06:19:29.827Z,1002.56
2018-03-23T06:20:29.802Z,1002.54
2018-03-23T06:21:29.781Z,1002.55
2018-03-23T06:22:29.767Z,1002.51
2018-03-23T06:23:29.741Z,1002.53
2018-03-23T06:24:29.718Z,1002.56
2018-03-23T06:25:29.696Z,1002.59
2018-03-23T06:26:29.677Z,1002.54
2018-03-23T06:27:29.654Z,1002.54
2018-03-23T06:28:29.635Z,1002.53
2018-03-23T06:29:29.616Z,1002.56
2018-03-23T06:30:29.594Z,1002.52
2018-03-23T06:31:29.571Z,1002.52
2018-03-23T06:32:29.552Z,1002.52
2018-03-23T06:33:29.541Z,1002.54
2018-03-23T06:34:29.523Z,1002.57
2018-03-23T06:35:29.486Z,1002.51
2018-03-23T06:36:29.468Z,1002.56
2018-03-23T06:37:29.443Z,1002.51
2018-03-23T06:38:29.433Z,1002.51
2018-03-23T06:39:29.401Z,1002.51
2018-03-23T06:40:29.388Z,1002.47
2018-03-23T06:41:29.405Z,1002.47
2018-03-23T06:42:29.345Z,1002.48
2018-03-23T06:43:29.316Z,1002.49
2018-03-23T06:44:29.308Z,1002.49
2018-03-23T06:45:29.274Z,1002.51
2018-03-23T06:46:29.255Z,1002.49
2018-03-23T06:47:29.229Z,1002.43
2018-03-23T06:48:29.221Z,1002.42
2018-03-23T06:49:29.187Z,1002.46
2018-03-23T06:50:29.175Z,1002.42
2018-03-23T06:51:29.147Z,1002.43
2018-03-23T06:52:29.124Z,1002.42
2018-03-23T06:53:29.105Z,1002.42
2018-03-23T06:54:29.138Z,1002.44
2018-03-23T06:55:29.064Z,1002.44
2018-03-23T06:56:29.041Z,1002.43
2018-03-23T06:57:29.021Z,1002.46
2018-03-23T06:58:29.002Z,1002.45
2018-03-23T06:59:28.981Z,1002.44
2018-03-23T07:00:28.958Z,1002.45
2018-03-23T07:01:28.933Z,1002.43
2018-03-23T07:02:28.912Z,1002.44
2018-03-23T07:03:28.893Z,1002.43
2018-03-23T07:04:28.869Z,1002.46
2018-03-23T07:05:28.857Z,1002.40
2018-03-23T07:06:28.830Z,1002.45
2018-03-23T07:07:28.805Z,1002.48
2018-03-23T07:08:28.799Z,1002.40
2018-03-23T07:09:28.764Z,1002.45
2018-03-23T07:10:28.741Z,1002.44
2018-03-23T07:11:28.726Z,1002.44
2018-03-23T07:12:28.710Z,1002.45
2018-03-23T07:13:28.683Z,1002.44
2018-03-23T07:14:28.662Z,1002.44
2018-03-23T07:15:28.634Z,1002.43
2018-03-23T07:16:28.621Z,1002.43
2018-03-23T07:17:28.594Z,1002.49
2018-03-23T07:18:28.575Z,1002.46
2018-03-23T07:19:28.562Z,1002.46
2018-03-23T07:20:28.537Z,1002.47
2018-03-23T07:21:28.512Z,1002.51
2018-03-23T07:22:28.491Z,1002.47
2018-03-23T07:23:28.476Z,1002.48
2018-03-23T07:24:28.446Z,1002.50
2018-03-23T07:25:28.426Z,1002.47
2018-03-23T07:26:28.406Z,1002.48
2018-03-23T07:27:28.383Z,1002.46
2018-03-23T07:28:28.362Z,1002.41
2018-03-23T07:29:28.345Z,1002.42
2018-03-23T07:30:28.328Z,1002.42
2018-03-23T07:31:28.300Z,1002.37
2018-03-23T07:32:28.279Z,1002.40
2018-03-23T07:33:28.261Z,1002.41
2018-03-23T07:34:28.237Z,1002.39
2018-03-23T07:35:28.216Z,1002.39
2018-03-23T07:36:28.195Z,1002.32
2018-03-23T07:37:28.172Z,1002.36
2018-03-23T07:38:28.153Z,1002.34
2018-03-23T07:39:28.134Z,1002.37
2018-03-23T07:40:28.110Z,1002.35
2018-03-23T07:41:28.085Z,1002.33
2018-03-23T07:42:28.066Z,1002.34
2018-03-23T07:43:28.044Z,1002.34
2018-03-23T07:44:28.024Z,1002.33
2018-03-23T07:45:28.005Z,1002.33
2018-03-23T07:46:27.987Z,1002.33
2018-03-23T07:47:27.958Z,1002.31
2018-03-23T07:48:27.947Z,1002.33
2018-03-23T07:49:27.927Z,1002.34
2018-03-23T07:50:27.899Z,1002.34
2018-03-23T07:51:27.875Z,1002.32
2018-03-23T07:52:27.858Z,1002.35
2018-03-23T07:53:27.834Z,1002.30
2018-03-23T07:54:27.822Z,1002.31
2018-03-23T07:55:27.791Z,1002.29
2018-03-23T07:56:27.771Z,1002.30
2018-03-23T07:57:27.756Z,1002.29
2018-03-23T07:58:27.729Z,1002.30
2018-03-23T07:59:27.708Z,1002.29
2018-03-23T08:00:27.687Z,1002.25
2018-03-23T08:01:27.696Z,1002.27
2018-03-23T08:02:27.646Z,1002.22
2018-03-23T08:03:27.872Z,1002.21
2018-03-23T08:04:27.605Z,1002.20
2018-03-23T08:05:27.579Z,1002.23
2018-03-23T08:06:27.566Z,1002.20
2018-03-23T08:07:27.538Z,1002.22
2018-03-23T08:08:27.521Z,1002.21
2018-03-23T08:09:27.494Z,1002.26
2018-03-23T08:10:27.478Z,1002.21
2018-03-23T08:11:27.452Z,1002.22
2018-03-23T08:12:27.436Z,1002.21
2018-03-23T08:13:27.413Z,1002.21
2018-03-23T08:14:27.393Z,1002.14
2018-03-23T08:15:27.369Z,1002.17
2018-03-23T08:16:27.345Z,1002.15
2018-03-23T08:17:27.326Z,1002.18
2018-03-23T08:18:27.303Z,1002.21
2018-03-23T08:19:27.285Z,1002.18
2018-03-23T08:20:27.262Z,1002.15
2018-03-23T08:21:27.243Z,1002.15
2018-03-23T08:22:27.225Z,1002.16
2018-03-23T08:23:27.198Z,1002.17
2018-03-23T08:24:27.177Z,1002.14
2018-03-23T08:25:27.159Z,1002.14
2018-03-23T08:26:27.136Z,1002.15
2018-03-23T08:27:27.118Z,1002.18
2018-03-23T08:28:27.094Z,1002.14
2018-03-23T08:29:27.072Z,1002.14
2018-03-23T08:30:27.055Z,1002.10
2018-03-23T08:31:27.032Z,1002.14
2018-03-23T08:32:27.012Z,1002.14
2018-03-23T08:33:26.992Z,1002.12
2018-03-23T08:34:26.969Z,1002.12
2018-03-23T08:35:26.945Z,1002.12
2018-03-23T08:36:26.985Z,1002.12
2018-03-23T08:37:26.906Z,1002.10
2018-03-23T08:38:26.882Z,1002.06
2018-03-23T08:39:26.863Z,1002.05
2018-03-23T08:40:26.849Z,1002.02
2018-03-23T08:41:26.827Z,1002.04
2018-03-23T08:42:26.799Z,1002.03
2018-03-23T08:43:26.780Z,1002.04
2018-03-23T08:44:26.863Z,1001.99
2018-03-23T08:45:26.733Z,1002.00
2018-03-23T08:46:26.718Z,1002.00
2018-03-23T08:47:26.699Z,1002.03
2018-03-23T08:48:26.675Z,1002.03
2018-03-23T08:49:26.655Z,1002.01
2018-03-23T08:50:26.628Z,1002.01
2018-03-23T08:51:26.606Z,1002.00
2018-03-23T08:52:26.586Z,1002.00
2018-03-23T08:53:26.625Z,1002.03
2018-03-23T08:54:26.553Z,1001.99
2018-03-23T08:55:26.529Z,1002.00
2018-03-23T08:56:26.501Z,1001.99
2018-03-23T08:57:26.482Z,1001.98
2018-03-23T08:58:26.462Z,1002.00
2018-03-23T08:59:26.438Z,1001.99
2018-03-23T09:00:26.418Z,1001.98
2018-03-23T09:01:26.396Z,1001.96
2018-03-23T09:02:26.376Z,1001.96
2018-03-23T09:03:26.356Z,1001.97
2018-03-23T09:04:26.349Z,1002.00
2018-03-23T09:05:26.311Z,1001.96
2018-03-23T09:06:26.289Z,1001.95
2018-03-23T09:07:26.264Z,1001.95
2018-03-23T09:08:26.249Z,1001.92
2018-03-23T09:09:26.229Z,1001.92
2018-03-23T09:10:26.210Z,1001.93
2018-03-23T09:11:26.183Z,1001.88
2018-03-23T09:12:26.160Z,1001.86
2018-03-23T09:13:26.146Z,1001.88
2018-03-23T09:14:26.131Z,1001.91
2018-03-23T09:15:26.098Z,1001.90
2018-03-23T09:16:26.080Z,1001.87
2018-03-23T09:17:26.058Z,1001.84
2018-03-23T09:18:26.046Z,1001.81
2018-03-23T09:19:26.018Z,1001.82
2018-03-23T09:20:25.994Z,1001.80
2018-03-23T09:21:26.225Z,1001.79
2018-03-23T09:22:25.956Z,1001.79
2018-03-23T09:23:25.943Z,1001.81
2018-03-23T09:24:25.916Z,1001.73
2018-03-23T09:25:25.891Z,1001.76
2018-03-23T09:26:25.869Z,1001.75
2018-03-23T09:27:25.846Z,1001.74
2018-03-23T09:28:25.826Z,1001.75
2018-03-23T09:29:25.840Z,1001.74
2018-03-23T09:30:25.786Z,1001.75
2018-03-23T09:31:25.771Z,1001.77
2018-03-23T09:32:25.744Z,1001.71
2018-03-23T09:33:25.726Z,1001.67
2018-03-23T09:34:25.711Z,1001.71
2018-03-23T09:35:25.681Z,1001.64
2018-03-23T09:36:25.665Z,1001.69
2018-03-23T09:37:25.638Z,1001.69
2018-03-23T09:38:25.627Z,1001.66
2018-03-23T09:39:25.625Z,1001.68
2018-03-23T09:40:25.576Z,1001.63
2018-03-23T09:41:25.562Z,1001.62
2018-03-23T09:42:25.536Z,1001.60
2018-03-23T09:43:25.524Z,1001.57
2018-03-23T09:44:25.495Z,1001.55
2018-03-23T09:45:25.472Z,1001.56
2018-03-23T09:46:25.459Z,1001.53
2018-03-23T09:47:25.430Z,1001.54
2018-03-23T09:48:25.413Z,1001.53
2018-03-23T09:49:25.403Z,1001.55
2018-03-23T09:50:25.416Z,1001.55
2018-03-23T09:51:25.349Z,1001.52
2018-03-23T09:52:25.326Z,1001.54
2018-03-23T09:53:25.306Z,1001.53
2018-03-23T09:54:25.299Z,1001.52
2018-03-23T09:55:25.265Z,1001.51
2018-03-23T09:56:25.239Z,1001.52
2018-03-23T09:57:25.226Z,1001.50
2018-03-23T09:58:25.203Z,1001.53
2018-03-23T09:59:25.181Z,1001.52
2018-03-23T10:00:25.163Z,1001.51
2018-03-23T10:01:25.141Z,1001.47
2018-03-23T10:02:25.118Z,1001.40
2018-03-23T10:03:25.092Z,1001.45
2018-03-23T10:04:25.100Z,1001.45
2018-03-23T10:05:25.092Z,1001.40
2018-03-23T10:06:25.038Z,1001.43
2018-03-23T10:07:25.016Z,1001.42
2018-03-23T10:08:24.989Z,1001.45
2018-03-23T10:09:24.968Z,1001.43
2018-03-23T10:10:24.945Z,1001.46
2018-03-23T10:11:24.926Z,1001.51
2018-03-23T10:12:24.908Z,1001.47
2018-03-23T10:13:24.882Z,1001.45
2018-03-23T10:14:24.865Z,1001.41
2018-03-23T10:15:24.893Z,1001.45
2018-03-23T10:16:24.827Z,1001.44
2018-03-23T10:17:24.800Z,1001.46
2018-03-23T10:18:24.781Z,1001.43
2018-03-23T10:19:24.763Z,1001.37
2018-03-23T10:20:24.735Z,1001.40
2018-03-23T10:21:24.716Z,1001.38
2018-03-23T10:22:24.696Z,1001.37
2018-03-23T10:23:24.676Z,1001.35
2018-03-23T10:24:24.653Z,1001.30
2018-03-23T10:25:24.634Z,1001.25
2018-03-23T10:26:24.617Z,1001.27
2018-03-23T10:27:24.592Z,1001.26
2018-03-23T10:28:24.571Z,1001.21
2018-03-23T10:29:24.566Z,1001.20
2018-03-23T10:30:24.529Z,1001.27
2018-03-23T10:31:24.514Z,1001.24
2018-03-23T10:32:24.493Z,1001.21
2018-03-23T10:33:24.467Z,1001.22
2018-03-23T10:34:24.450Z,1001.23
2018-03-23T10:35:24.473Z,1001.17
2018-03-23T10:36:24.404Z,1001.20
2018-03-23T10:37:24.389Z,1001.15
2018-03-23T10:38:24.364Z,1001.15
2018-03-23T10:39:24.346Z,1001.11
2018-03-23T10:40:24.323Z,1001.11
2018-03-23T10:41:24.300Z,1001.12
2018-03-23T10:42:24.278Z,1001.12
2018-03-23T10:43:24.261Z,1001.09
2018-03-23T10:44:24.237Z,1001.09
2018-03-23T10:45:24.217Z,1001.13
2018-03-23T10:46:24.197Z,1001.09
2018-03-23T10:47:24.176Z,1001.08
2018-03-23T10:48:24.158Z,1001.07
2018-03-23T10:49:24.135Z,1001.04
2018-03-23T10:50:24.119Z,1001.05
2018-03-23T10:51:24.111Z,1001.00
2018-03-23T10:52:24.072Z,1001.00
2018-03-23T10:53:24.055Z,1001.03
2018-03-23T10:54:24.033Z,1001.00
2018-03-23T10:55:24.016Z,1001.04
2018-03-23T10:56:23.992Z,1001.03
2018-03-23T10:57:23.972Z,1000.99
2018-03-23T10:58:23.949Z,1001.00
2018-03-23T10:59:23.934Z,1000.98
2018-03-23T11:00:23.906Z,1000.97
2018-03-23T11:01:23.885Z,1000.97
2018-03-23T11:02:23.867Z,1000.90
2018-03-23T11:03:23.845Z,1000.92
2018-03-23T11:04:23.826Z,1000.95
2018-03-23T11:05:23.806Z,1000.95
2018-03-23T11:06:23.790Z,1000.94
2018-03-23T11:07:23.766Z,1000.96
2018-03-23T11:08:23.749Z,1000.98
2018-03-23T11:09:23.722Z,1000.94
2018-03-23T11:10:23.706Z,1000.98
2018-03-23T11:11:23.683Z,1000.95
2018-03-23T11:12:23.665Z,1000.90
2018-03-23T11:13:23.643Z,1000.91
2018-03-23T11:14:23.619Z,1000.91
2018-03-23T11:15:23.645Z,1000.87
2018-03-23T11:16:23.578Z,1000.85
2018-03-23T11:17:23.566Z,1000.85
2018-03-23T11:18:23.538Z,1000.89
2018-03-23T11:19:23.516Z,1000.86
2018-03-23T11:20:23.497Z,1000.87
2018-03-23T11:21:23.478Z,1000.77
2018-03-23T11:22:23.459Z,1000.79
2018-03-23T11:23:23.445Z,1000.76
2018-03-23T11:24:23.437Z,1000.73
2018-03-23T11:25:23.395Z,1000.69
2018-03-23T11:26:23.378Z,1000.66
2018-03-23T11:27:23.353Z,1000.67
2018-03-23T11:28:23.333Z,1000.61
2018-03-23T11:29:23.319Z,1000.62
2018-03-23T11:30:23.294Z,1000.67
2018-03-23T11:31:23.280Z,1000.63
2018-03-23T11:32:23.254Z,1000.62
2018-03-23T11:33:23.234Z,1000.67
2018-03-23T11:34:23.214Z,1000.64
2018-03-23T11:35:23.194Z,1000.66
2018-03-23T11:36:23.179Z,1000.63
2018-03-23T11:37:23.158Z,1000.66
2018-03-23T11:38:23.135Z,1000.63
2018-03-23T11:39:23.112Z,1000.55
2018-03-23T11:40:23.097Z,1000.61
2018-03-23T11:41:23.071Z,1000.63
2018-03-23T11:42:23.056Z,1000.57
2018-03-23T11:43:23.033Z,1000.59
2018-03-23T11:44:23.034Z,1000.57
2018-03-23T11:45:22.993Z,1000.57
2018-03-23T11:46:22.972Z,1000.58
2018-03-23T11:47:22.955Z,1000.58
2018-03-23T11:48:22.929Z,1000.56
2018-03-23T11:49:22.914Z,1000.53
2018-03-23T11:50:22.903Z,1000.50
2018-03-23T11:51:22.866Z,1000.48
2018-03-23T11:52:22.852Z,1000.42
2018-03-23T11:53:22.827Z,1000.42
2018-03-23T11:54:22.815Z,1000.43
2018-03-23T11:55:22.797Z,1000.46
2018-03-23T11:56:22.788Z,1000.38
2018-03-23T11:57:22.747Z,1000.35
2018-03-23T11:58:22.731Z,1000.42
2018-03-23T11:59:22.712Z,1000.37
2018-03-23T12:00:22.684Z,1000.36
2018-03-23T12:01:22.668Z,1000.33
2018-03-23T12:02:22.645Z,1000.33
2018-03-23T12:03:22.632Z,1000.34
2018-03-23T12:04:22.609Z,1000.33
2018-03-23T12:05:22.586Z,1000.32